createdAt,value
2019-05-05T00:02:06.061Z,83.90
2019-05-05T00:04:55.187Z,83.90
2019-05-05T00:07:28.996Z,84.50
2019-05-05T00:09:59.470Z,84.90
2019-05-05T00:12:48.601Z,84.80
2019-05-05T00:15:36.665Z,84.90
2019-05-05T00:18:07.021Z,85.00
2019-05-05T00:20:37.252Z,85.40
2019-05-05T00:23:07.460Z,85.50
2019-05-05T00:25:37.750Z,85.60
2019-05-05T00:28:07.939Z,85.80
2019-05-05T00:30:38.245Z,85.90
2019-05-05T00:33:08.469Z,86.30
2019-05-05T00:35:38.664Z,86.40
2019-05-05T00:38:08.847Z,86.50
2019-05-05T00:40:39.016Z,86.20
2019-05-05T00:43:09.313Z,86.30
2019-05-05T00:45:41.475Z,86.60
2019-05-05T00:48:17.275Z,86.60
2019-05-05T00:50:47.556Z,86.70
2019-05-05T00:53:17.814Z,86.70
2019-05-05T00:55:48.051Z,86.80
2019-05-05T00:58:18.336Z,86.70
2019-05-05T01:00:57.816Z,87.00
2019-05-05T01:03:28.586Z,87.40
2019-05-05T01:06:16.781Z,87.50
2019-05-05T01:08:47.201Z,87.80
2019-05-05T01:11:18.138Z,88.00
2019-05-05T01:13:48.482Z,87.80
2019-05-05T01:16:18.812Z,87.30
2019-05-05T01:18:49.131Z,87.70
2019-05-05T01:21:19.394Z,87.80
2019-05-05T01:23:49.667Z,87.80
2019-05-05T01:26:19.993Z,87.70
2019-05-05T01:28:50.285Z,88.10
2019-05-05T01:31:21.452Z,87.90
2019-05-05T01:34:15.493Z,87.90
2019-05-05T01:36:47.100Z,87.90
2019-05-05T01:39:51.388Z,88.10
2019-05-05T01:42:21.756Z,87.80
2019-05-05T01:44:51.999Z,89.30
2019-05-05T01:47:22.428Z,88.60
2019-05-05T01:49:54.443Z,88.60
2019-05-05T01:52:25.544Z,88.70
2019-05-05T01:54:55.887Z,89.10
2019-05-05T01:57:26.486Z,89.30
2019-05-05T01:59:57.549Z,89.30
2019-05-05T02:02:27.819Z,89.40
2019-05-05T02:04:58.137Z,89.10
2019-05-05T02:07:28.431Z,89.30
2019-05-05T02:10:00.870Z,88.80
2019-05-05T02:12:31.475Z,88.90
2019-05-05T02:15:01.781Z,89.40
2019-05-05T02:17:32.014Z,89.20
2019-05-05T02:20:02.280Z,89.60
2019-05-05T02:22:32.543Z,89.60
2019-05-05T02:25:04.253Z,89.60
2019-05-05T02:27:34.628Z,89.40
2019-05-05T02:30:30.718Z,89.30
2019-05-05T02:33:06.474Z,89.30
2019-05-05T02:35:36.849Z,89.80
2019-05-05T02:38:07.139Z,89.70
2019-05-05T02:40:38.155Z,89.90
2019-05-05T02:43:09.032Z,89.80
2019-05-05T02:46:05.496Z,89.70
2019-05-05T02:48:36.921Z,89.80
2019-05-05T02:51:08.121Z,90.00
2019-05-05T02:53:44.714Z,89.10
2019-05-05T02:56:23.651Z,89.70
2019-05-05T02:58:57.763Z,90.00
2019-05-05T03:01:36.768Z,89.90
2019-05-05T03:04:08.931Z,89.60
2019-05-05T03:06:44.005Z,90.00
2019-05-05T03:09:16.184Z,89.80
2019-05-05T03:11:49.720Z,89.70
2019-05-05T03:14:23.802Z,89.70
2019-05-05T03:16:55.034Z,89.80
2019-05-05T03:19:26.635Z,90.00
2019-05-05T03:21:57.342Z,89.80
2019-05-05T03:24:28.048Z,90.10
2019-05-05T03:26:58.878Z,90.00
2019-05-05T03:29:29.531Z,90.20
2019-05-05T03:32:00.264Z,90.30
2019-05-05T03:34:31.398Z,90.40
2019-05-05T03:37:04.222Z,90.40
2019-05-05T03:39:35.068Z,90.50
2019-05-05T03:42:40.122Z,90.40
2019-05-05T03:45:23.370Z,90.20
2019-05-05T03:47:54.169Z,90.30
2019-05-05T03:50:24.541Z,90.40
2019-05-05T03:52:55.041Z,90.40
2019-05-05T03:55:25.602Z,90.50
2019-05-05T03:57:56.514Z,90.60
2019-05-05T04:01:11.014Z,90.40
2019-05-05T04:03:43.446Z,90.50
2019-05-05T04:06:14.643Z,90.70
2019-05-05T04:08:45.941Z,90.70
2019-05-05T04:11:16.229Z,90.70
2019-05-05T04:13:46.523Z,90.70
2019-05-05T04:16:23.720Z,90.70
2019-05-05T04:18:58.208Z,90.70
2019-05-05T04:21:33.541Z,91.00
2019-05-05T04:24:00.509Z,90.90
2019-05-05T04:26:30.832Z,91.00
2019-05-05T04:29:03.213Z,91.10
2019-05-05T04:31:34.541Z,91.10
2019-05-05T04:34:04.950Z,91.20
2019-05-05T04:36:35.204Z,91.10
2019-05-05T04:39:07.184Z,91.30
2019-05-05T04:41:37.476Z,91.40
2019-05-05T04:44:07.756Z,91.20
2019-05-05T04:46:38.050Z,91.30
2019-05-05T04:49:23.991Z,91.40
2019-05-05T04:51:55.505Z,91.40
2019-05-05T04:54:40.722Z,91.60
2019-05-05T04:57:12.015Z,91.50
2019-05-05T04:59:44.340Z,91.60
2019-05-05T05:02:34.354Z,91.80
2019-05-05T05:05:09.873Z,91.60
2019-05-05T05:07:43.807Z,91.80
2019-05-05T05:10:13.965Z,91.80
2019-05-05T05:12:45.133Z,91.70
2019-05-05T05:15:16.369Z,91.80
2019-05-05T05:17:55.984Z,92.00
2019-05-05T05:20:26.309Z,92.00
2019-05-05T05:22:56.613Z,92.10
2019-05-05T05:25:26.847Z,92.20
2019-05-05T05:27:57.068Z,92.30
2019-05-05T05:30:27.439Z,92.30
2019-05-05T05:32:57.716Z,92.30
2019-05-05T05:35:28.026Z,92.10
2019-05-05T05:37:58.345Z,92.30
2019-05-05T05:40:44.398Z,92.30
2019-05-05T05:43:19.059Z,92.40
2019-05-05T05:46:09.752Z,92.60
2019-05-05T05:48:47.092Z,92.50
2019-05-05T05:51:19.750Z,92.60
2019-05-05T05:53:50.006Z,92.30
2019-05-05T05:56:20.259Z,92.60
2019-05-05T05:58:50.567Z,92.40
2019-05-05T06:01:20.890Z,92.50
2019-05-05T06:03:51.119Z,92.30
2019-05-05T06:06:23.997Z,92.60
2019-05-05T06:08:54.434Z,92.70
2019-05-05T06:11:25.114Z,92.70
2019-05-05T06:13:55.881Z,92.90
2019-05-05T06:16:26.173Z,92.90
2019-05-05T06:18:56.511Z,93.00
2019-05-05T06:21:26.798Z,92.90
2019-05-05T06:23:57.076Z,93.10
2019-05-05T06:26:27.346Z,93.20
2019-05-05T06:28:57.613Z,93.30
2019-05-05T06:31:27.889Z,93.10
2019-05-05T06:33:58.188Z,93.30
2019-05-05T06:36:28.381Z,93.50
2019-05-05T06:38:58.672Z,93.80
2019-05-05T06:41:44.018Z,94.50
2019-05-05T06:44:36.961Z,94.30
2019-05-05T06:47:13.490Z,94.40
2019-05-05T06:49:45.040Z,93.60
2019-05-05T06:52:15.315Z,94.30
2019-05-05T06:54:45.595Z,94.00
2019-05-05T06:57:15.921Z,94.30
2019-05-05T06:59:46.282Z,94.10
2019-05-05T07:02:16.616Z,94.50
2019-05-05T07:04:46.878Z,94.40
2019-05-05T07:07:17.216Z,94.70
2019-05-05T07:09:47.501Z,94.70
2019-05-05T07:12:19.549Z,94.90
2019-05-05T07:14:49.859Z,94.80
2019-05-05T07:17:20.423Z,94.80
2019-05-05T07:19:50.814Z,94.70
2019-05-05T07:22:21.214Z,94.60
2019-05-05T07:24:51.445Z,94.70
2019-05-05T07:27:21.719Z,94.60
2019-05-05T07:29:54.021Z,94.70
2019-05-05T07:32:24.658Z,94.60
2019-05-05T07:35:08.708Z,94.70
2019-05-05T07:37:38.927Z,95.60
2019-05-05T07:40:10.289Z,95.60
2019-05-05T07:42:40.730Z,95.50
2019-05-05T07:45:20.299Z,95.60
2019-05-05T07:47:43.849Z,95.50
2019-05-05T07:50:28.635Z,95.30
2019-05-05T07:52:46.627Z,95.50
2019-05-05T07:55:16.938Z,95.00
2019-05-05T07:57:47.211Z,95.10
2019-05-05T08:00:19.614Z,95.40
2019-05-05T08:02:50.008Z,94.80
2019-05-05T08:05:20.294Z,95.10
2019-05-05T08:07:50.626Z,95.40
2019-05-05T08:10:20.860Z,95.90
2019-05-05T08:12:51.296Z,95.60
2019-05-05T08:15:24.720Z,95.60
2019-05-05T08:18:04.598Z,95.80
2019-05-05T08:20:38.010Z,95.30
2019-05-05T08:23:28.006Z,95.40
2019-05-05T08:25:50.079Z,95.50
2019-05-05T08:28:37.855Z,95.60
2019-05-05T08:31:33.924Z,96.70
2019-05-05T08:34:04.252Z,96.30
2019-05-05T08:36:34.529Z,95.30
2019-05-05T08:39:06.165Z,95.20
2019-05-05T08:41:36.438Z,95.30
2019-05-05T08:44:06.682Z,95.00
2019-05-05T08:46:38.096Z,94.90
2019-05-05T08:49:08.365Z,95.10
2019-05-05T08:51:38.647Z,94.50
2019-05-05T08:54:08.943Z,94.70
2019-05-05T08:56:39.242Z,94.80
2019-05-05T08:59:09.489Z,94.50
2019-05-05T09:01:39.860Z,94.20
2019-05-05T09:04:10.213Z,93.70
2019-05-05T09:06:43.557Z,93.90
2019-05-05T09:09:14.471Z,93.80
2019-05-05T09:11:45.762Z,93.80
2019-05-05T09:14:16.316Z,93.60
2019-05-05T09:16:46.758Z,93.40
2019-05-05T09:19:19.414Z,92.70
2019-05-05T09:21:49.839Z,91.90
2019-05-05T09:24:34.721Z,91.00
2019-05-05T09:27:14.615Z,90.70
2019-05-05T09:29:44.992Z,90.90
2019-05-05T09:32:15.267Z,90.50
2019-05-05T09:34:45.594Z,89.30
2019-05-05T09:37:16.566Z,88.40
2019-05-05T09:39:47.606Z,87.40
2019-05-05T09:42:18.069Z,86.10
2019-05-05T09:44:48.569Z,86.50
2019-05-05T09:47:18.900Z,83.60
2019-05-05T09:49:49.216Z,82.00
2019-05-05T09:52:19.504Z,78.00
2019-05-05T09:54:50.041Z,76.20
2019-05-05T09:57:20.354Z,75.70
2019-05-05T09:59:50.815Z,76.60
2019-05-05T10:02:21.211Z,77.40
2019-05-05T10:04:54.813Z,78.90
2019-05-05T10:07:25.115Z,78.80
2019-05-05T10:09:55.484Z,78.90
2019-05-05T10:12:25.849Z,80.00
2019-05-05T10:14:59.364Z,81.00
2019-05-05T10:17:33.642Z,81.80
2019-05-05T10:20:05.884Z,81.00
2019-05-05T10:22:36.171Z,80.60
2019-05-05T10:25:24.210Z,80.30
2019-05-05T10:27:55.148Z,80.20
2019-05-05T10:30:26.537Z,78.60
2019-05-05T10:32:57.132Z,79.70
2019-05-05T10:35:27.444Z,79.20
2019-05-05T10:37:59.814Z,80.00
2019-05-05T10:40:34.147Z,79.70
2019-05-05T10:43:05.125Z,77.70
2019-05-05T10:45:35.486Z,79.20
2019-05-05T10:48:05.774Z,79.20
2019-05-05T10:50:36.151Z,79.10
2019-05-05T10:53:06.430Z,78.20
2019-05-05T10:55:36.759Z,77.00
2019-05-05T10:58:07.055Z,77.70
2019-05-05T11:00:56.294Z,76.00
2019-05-05T11:03:26.590Z,75.50
2019-05-05T11:05:57.205Z,76.40
2019-05-05T11:08:31.233Z,76.00
2019-05-05T11:11:01.664Z,76.20
2019-05-05T11:13:46.856Z,76.00
2019-05-05T11:16:17.155Z,76.70
2019-05-05T11:18:48.277Z,78.20
2019-05-05T11:21:18.590Z,78.20
2019-05-05T11:23:48.874Z,78.60
2019-05-05T11:26:19.294Z,79.30
2019-05-05T11:28:50.814Z,79.40
2019-05-05T11:31:21.156Z,79.80
2019-05-05T11:33:56.452Z,79.80
2019-05-05T11:36:44.758Z,79.80
2019-05-05T11:39:15.075Z,79.90
2019-05-05T11:41:45.483Z,79.50
2019-05-05T11:44:15.834Z,79.00
2019-05-05T11:46:49.177Z,79.80
2019-05-05T11:49:20.991Z,80.00
2019-05-05T11:51:51.564Z,79.60
2019-05-05T11:54:24.617Z,78.90
2019-05-05T11:57:08.685Z,78.80
2019-05-05T11:59:41.815Z,78.30
2019-05-05T12:02:14.082Z,77.00
2019-05-05T12:04:44.159Z,76.40
2019-05-05T12:07:14.715Z,76.20
2019-05-05T12:09:54.742Z,75.20
2019-05-05T12:12:24.586Z,74.90
2019-05-05T12:14:55.649Z,75.10
2019-05-05T12:17:35.636Z,75.20
2019-05-05T12:20:10.905Z,75.60
2019-05-05T12:22:41.330Z,74.80
2019-05-05T12:25:29.224Z,75.00
2019-05-05T12:28:06.825Z,74.90
2019-05-05T12:30:37.195Z,72.20
2019-05-05T12:33:07.512Z,71.90
2019-05-05T12:35:38.391Z,72.90
2019-05-05T12:38:08.638Z,73.10
2019-05-05T12:40:38.933Z,72.80
2019-05-05T12:43:19.263Z,73.20
2019-05-05T12:45:54.634Z,72.20
2019-05-05T12:48:30.308Z,72.10
2019-05-05T12:51:00.567Z,70.90
2019-05-05T12:53:33.302Z,70.50
2019-05-05T12:56:04.127Z,69.20
2019-05-05T12:58:34.586Z,69.50
2019-05-05T13:01:14.539Z,69.20
2019-05-05T13:03:45.042Z,70.50
2019-05-05T13:06:15.608Z,71.50
2019-05-05T13:08:46.054Z,71.50
2019-05-05T13:11:16.676Z,72.00
2019-05-05T13:13:47.108Z,72.20
2019-05-05T13:16:17.543Z,74.00
2019-05-05T13:18:48.004Z,73.80
2019-05-05T13:21:55.543Z,73.90
2019-05-05T13:24:47.836Z,73.80
2019-05-05T13:27:24.684Z,74.90
2019-05-05T13:29:54.627Z,75.50
2019-05-05T13:32:26.583Z,75.60
2019-05-05T13:34:56.918Z,76.10
2019-05-05T13:37:27.189Z,75.50
2019-05-05T13:39:57.525Z,75.10
2019-05-05T13:42:27.852Z,75.70
2019-05-05T13:45:03.932Z,75.80
2019-05-05T13:47:34.595Z,76.00
2019-05-05T13:50:30.606Z,75.70
2019-05-05T13:53:03.801Z,75.20
2019-05-05T13:55:34.695Z,75.40
2019-05-05T13:58:04.968Z,75.90
2019-05-05T14:00:35.175Z,73.80
2019-05-05T14:03:06.386Z,75.00
2019-05-05T14:05:36.629Z,75.40
2019-05-05T14:08:06.917Z,74.60
2019-05-05T14:10:37.149Z,73.00
2019-05-05T14:13:10.366Z,71.30
2019-05-05T14:15:39.980Z,67.90
2019-05-05T14:18:10.221Z,66.10
2019-05-05T14:20:40.526Z,64.30
2019-05-05T14:23:10.907Z,63.20
2019-05-05T14:25:41.533Z,62.00
2019-05-05T14:28:11.735Z,62.30
2019-05-05T14:30:56.762Z,63.50
2019-05-05T14:33:30.405Z,62.90
2019-05-05T14:36:19.561Z,61.90
2019-05-05T14:38:53.935Z,62.20
2019-05-05T14:41:24.307Z,61.80
2019-05-05T14:43:56.482Z,61.80
2019-05-05T14:46:26.655Z,62.70
2019-05-05T14:48:56.881Z,62.80
2019-05-05T14:51:27.255Z,61.10
2019-05-05T14:53:57.494Z,58.90
2019-05-05T14:56:36.114Z,59.90
2019-05-05T14:59:00.017Z,59.20
2019-05-05T15:01:30.560Z,58.10
2019-05-05T15:04:00.795Z,58.30
2019-05-05T15:06:47.432Z,58.90
2019-05-05T15:09:37.020Z,59.70
2019-05-05T15:12:24.951Z,59.80
2019-05-05T15:14:55.224Z,60.10
2019-05-05T15:17:25.779Z,59.20
2019-05-05T15:19:56.233Z,58.50
2019-05-05T15:22:26.439Z,59.40
2019-05-05T15:24:56.697Z,59.70
2019-05-05T15:27:26.902Z,59.50
2019-05-05T15:29:57.221Z,60.20
2019-05-05T15:32:29.753Z,60.60
2019-05-05T15:35:00.520Z,61.40
2019-05-05T15:37:30.903Z,61.30
2019-05-05T15:40:01.293Z,60.50
2019-05-05T15:42:33.485Z,61.20
2019-05-05T15:45:04.222Z,61.70
2019-05-05T15:47:34.513Z,61.40
2019-05-05T15:50:05.468Z,61.30
2019-05-05T15:56:15.842Z,59.80
2019-05-05T15:58:59.621Z,59.00
2019-05-05T16:04:13.972Z,59.90
2019-05-05T16:08:57.212Z,60.10
2019-05-05T16:15:45.424Z,59.40
2019-05-05T16:18:21.191Z,59.50
2019-05-05T16:20:57.137Z,58.90
2019-05-05T16:23:31.148Z,59.40
2019-05-05T16:26:03.574Z,59.70
2019-05-05T16:28:34.338Z,59.10
2019-05-05T16:31:05.442Z,58.90
2019-05-05T16:33:35.667Z,58.50
2019-05-05T16:36:06.338Z,57.90
2019-05-05T16:38:36.694Z,57.20
2019-05-05T16:41:06.923Z,57.60
2019-05-05T16:43:37.026Z,56.30
2019-05-05T16:46:07.226Z,56.50
2019-05-05T16:48:37.391Z,56.20
2019-05-05T16:51:09.214Z,56.90
2019-05-05T16:53:39.415Z,57.30
2019-05-05T16:56:13.985Z,56.00
2019-05-05T16:58:45.103Z,56.90
2019-05-05T17:01:16.460Z,56.50
2019-05-05T17:03:46.681Z,56.80
2019-05-05T17:06:16.873Z,57.30
2019-05-05T17:08:46.946Z,56.70
2019-05-05T17:11:17.047Z,57.00
2019-05-05T17:14:00.420Z,56.90
2019-05-05T17:16:49.580Z,56.90
2019-05-05T17:19:47.707Z,56.30
2019-05-05T17:22:22.521Z,57.20
2019-05-05T17:24:53.513Z,57.60
2019-05-05T17:27:23.775Z,57.80
2019-05-05T17:29:53.752Z,58.10
2019-05-05T17:32:24.910Z,58.70
2019-05-05T17:34:55.149Z,58.90
2019-05-05T17:37:25.320Z,59.00
2019-05-05T17:40:04.217Z,58.80
2019-05-05T17:42:45.953Z,59.10
2019-05-05T17:45:44.490Z,59.70
2019-05-05T17:48:39.459Z,59.20
2019-05-05T17:51:15.695Z,59.50
2019-05-05T17:54:03.709Z,59.50
2019-05-05T17:56:33.765Z,59.70
2019-05-05T17:59:04.187Z,59.50
2019-05-05T18:01:34.359Z,59.40
2019-05-05T18:04:04.591Z,59.80
2019-05-05T18:06:44.045Z,59.60
2019-05-05T18:09:18.094Z,59.30
2019-05-05T18:12:06.085Z,59.20
2019-05-05T18:14:36.693Z,59.10
2019-05-05T18:17:06.784Z,59.30
2019-05-05T18:19:36.735Z,59.80
2019-05-05T18:22:06.748Z,59.50
2019-05-05T18:24:36.799Z,59.80
2019-05-05T18:27:06.950Z,60.00
2019-05-05T18:29:37.073Z,59.90
2019-05-05T18:32:07.296Z,60.30
2019-05-05T18:34:37.452Z,60.70
2019-05-05T18:37:07.619Z,60.70
2019-05-05T18:39:37.671Z,61.00
2019-05-05T18:42:17.171Z,60.90
2019-05-05T18:44:49.568Z,62.50
2019-05-05T18:47:21.387Z,62.80
2019-05-05T18:49:53.828Z,63.10
2019-05-05T18:52:24.526Z,63.40
2019-05-05T18:54:54.888Z,64.60
2019-05-05T18:57:25.141Z,63.90
2019-05-05T18:59:55.336Z,64.50
2019-05-05T19:02:59.822Z,64.90
2019-05-05T19:05:58.151Z,65.30
2019-05-05T19:08:31.596Z,65.60
2019-05-05T19:11:03.601Z,66.30
2019-05-05T19:13:34.115Z,66.70
2019-05-05T19:16:04.554Z,67.00
2019-05-05T19:18:34.627Z,67.50
2019-05-05T19:21:10.369Z,67.90
2019-05-05T19:23:40.479Z,68.20
2019-05-05T19:26:10.662Z,68.60
2019-05-05T19:28:44.525Z,68.70
2019-05-05T19:31:14.000Z,68.80
2019-05-05T19:33:44.249Z,69.10
2019-05-05T19:36:14.362Z,69.20
2019-05-05T19:38:44.760Z,69.40
2019-05-05T19:41:15.097Z,69.50
2019-05-05T19:43:55.129Z,69.60
2019-05-05T19:46:45.715Z,69.50
2019-05-05T19:49:17.135Z,69.80
2019-05-05T19:51:48.207Z,70.10
2019-05-05T19:54:20.677Z,70.20
2019-05-05T19:56:50.897Z,70.70
2019-05-05T19:59:21.207Z,70.80
2019-05-05T20:01:53.837Z,71.30
2019-05-05T20:04:24.175Z,71.50
2019-05-05T20:06:54.929Z,71.90
2019-05-05T20:09:25.246Z,72.30
2019-05-05T20:11:57.910Z,72.30
2019-05-05T20:14:28.108Z,72.60
2019-05-05T20:17:04.298Z,72.80
2019-05-05T20:19:38.946Z,73.10
2019-05-05T20:22:09.251Z,73.10
2019-05-05T20:24:39.510Z,73.60
2019-05-05T20:27:09.683Z,73.90
2019-05-05T20:29:39.792Z,73.70
2019-05-05T20:32:09.880Z,74.00
2019-05-05T20:35:04.752Z,74.20
2019-05-05T20:37:50.570Z,74.10
2019-05-05T20:40:24.426Z,74.60
2019-05-05T20:42:54.680Z,74.90
2019-05-05T20:45:27.401Z,75.00
2019-05-05T20:47:57.571Z,74.90
2019-05-05T20:50:27.718Z,75.10
2019-05-05T20:52:59.821Z,74.90
2019-05-05T20:55:29.832Z,75.30
2019-05-05T20:58:00.017Z,75.50
2019-05-05T21:00:30.187Z,75.80
2019-05-05T21:03:00.398Z,76.20
2019-05-05T21:05:30.528Z,76.20
2019-05-05T21:08:00.711Z,76.30
2019-05-05T21:10:30.723Z,76.40
2019-05-05T21:13:00.808Z,76.50
2019-05-05T21:15:30.899Z,76.80
2019-05-05T21:18:00.939Z,76.60
2019-05-05T21:20:31.141Z,76.90
2019-05-05T21:23:10.334Z,77.20
2019-05-05T21:25:44.778Z,77.30
2019-05-05T21:28:14.809Z,77.60
2019-05-05T21:30:44.883Z,77.60
2019-05-05T21:33:14.991Z,77.70
2019-05-05T21:35:45.066Z,77.70
2019-05-05T21:38:15.008Z,77.80
2019-05-05T21:40:45.099Z,77.40
2019-05-05T21:43:15.470Z,78.40
2019-05-05T21:45:45.653Z,78.40
2019-05-05T21:48:15.826Z,78.70
2019-05-05T21:50:55.993Z,78.80
2019-05-05T21:53:34.266Z,78.80
2019-05-05T21:56:24.659Z,78.80
2019-05-05T21:58:54.583Z,78.90
2019-05-05T22:01:27.139Z,79.00
2019-05-05T22:03:56.848Z,79.20
2019-05-05T22:06:27.029Z,79.20
2019-05-05T22:08:56.975Z,79.30
2019-05-05T22:11:26.977Z,79.40
2019-05-05T22:13:57.057Z,79.40
2019-05-05T22:16:27.214Z,79.30
2019-05-05T22:18:57.360Z,79.60
2019-05-05T22:21:40.968Z,79.70
2019-05-05T22:24:18.921Z,79.70
2019-05-05T22:26:49.025Z,80.00
2019-05-05T22:29:19.243Z,80.00
2019-05-05T22:31:49.464Z,80.10
2019-05-05T22:34:19.634Z,80.10
2019-05-05T22:36:49.778Z,80.20
2019-05-05T22:39:19.861Z,80.30
2019-05-05T22:41:50.008Z,80.30
2019-05-05T22:44:20.143Z,80.60
2019-05-05T22:46:50.384Z,80.30
2019-05-05T22:49:20.579Z,80.40
2019-05-05T22:51:50.599Z,80.50
2019-05-05T22:54:20.775Z,80.50
2019-05-05T22:56:50.922Z,80.60
2019-05-05T22:59:23.648Z,80.70
2019-05-05T23:01:54.163Z,80.90
2019-05-05T23:04:36.607Z,81.00
2019-05-05T23:07:16.352Z,80.80
2019-05-05T23:09:46.464Z,81.00
2019-05-05T23:12:16.610Z,80.80
2019-05-05T23:14:46.703Z,80.70
2019-05-05T23:17:44.979Z,80.50
2019-05-05T23:20:57.369Z,80.60
2019-05-05T23:23:46.269Z,80.70
2019-05-05T23:26:18.296Z,80.60
2019-05-05T23:28:48.292Z,80.70
2019-05-05T23:31:18.328Z,80.70
2019-05-05T23:33:48.465Z,80.80
2019-05-05T23:36:18.468Z,81.10
2019-05-05T23:38:48.551Z,81.20
2019-05-05T23:41:18.642Z,81.10
2019-05-05T23:43:48.733Z,81.10
2019-05-05T23:46:18.900Z,81.20
2019-05-05T23:48:48.959Z,81.40
2019-05-05T23:51:19.049Z,81.30
2019-05-05T23:53:49.222Z,81.50
2019-05-05T23:56:19.322Z,81.50
2019-05-05T23:58:49.429Z,81.70
